Time;durP1;ratioP1;P1;durP2;ratioP2;P2;SDS_P1;SDS_P2;PMS_P1;PMS_P2;Temp;Humidity;BMP_temperature;BMP_pressure;BME280_temperature;BME280_humidity;BME280_pressure;Samples;Min_cycle;Max_cycle;Signal;HPM_P1;HPM_P2
2021/08/03 00:00:27;;;;;;;4.47;2.20;;;14.90;99.90;;;;;;5024889;28;20212;-49
2021/08/03 00:02:57;;;;;;;2.33;2.17;;;14.90;99.90;;;;;;5042443;28;20643;-44
2021/08/03 00:05:28;;;;;;;2.87;1.90;;;14.90;99.90;;;;;;5040474;28;20706;-52
2021/08/03 00:08:01;;;;;;;3.00;2.17;;;14.90;99.90;;;;;;5042855;28;20211;-43
2021/08/03 00:10:29;;;;;;;3.60;2.10;;;14.90;99.90;;;;;;5039419;28;20215;-52
2021/08/03 00:12:56;;;;;;;2.73;2.53;;;14.90;99.90;;;;;;5041341;28;20683;-44
2021/08/03 00:15:25;;;;;;;7.60;2.80;;;14.90;99.90;;;;;;5025636;28;20578;-52
2021/08/03 00:17:54;;;;;;;3.30;2.30;;;14.90;99.90;;;;;;5041641;28;20215;-44
2021/08/03 00:20:22;;;;;;;3.07;2.00;;;14.90;99.90;;;;;;5040799;28;20649;-50
2021/08/03 00:22:49;;;;;;;4.03;2.20;;;14.90;99.90;;;;;;5040993;28;20221;-46
2021/08/03 00:25:16;;;;;;;3.67;2.47;;;14.80;99.90;;;;;;5042278;28;20684;-51
2021/08/03 00:27:43;;;;;;;4.23;2.17;;;14.80;99.90;;;;;;5039726;28;20933;-44
2021/08/03 00:30:10;;;;;;;3.60;2.20;;;14.70;99.90;;;;;;5042565;28;20693;-48
2021/08/03 00:32:39;;;;;;;4.00;2.67;;;14.80;99.90;;;;;;5026150;28;20198;-44
2021/08/03 00:35:06;;;;;;;2.37;1.90;;;14.80;99.90;;;;;;5046723;28;20565;-44
2021/08/03 00:37:33;;;;;;;5.43;2.80;;;14.80;99.90;;;;;;5042195;28;20203;-49
2021/08/03 00:40:00;;;;;;;3.67;2.60;;;14.80;99.90;;;;;;5046238;28;20191;-45
2021/08/03 00:42:27;;;;;;;3.40;2.30;;;14.80;99.90;;;;;;5041787;28;20241;-52
2021/08/03 00:44:55;;;;;;;3.17;2.10;;;14.80;99.90;;;;;;5044558;28;20191;-47
2021/08/03 00:47:29;;;;;;;3.40;2.50;;;14.70;99.90;;;;;;5026456;28;20593;-51
2021/08/03 00:50:05;;;;;;;3.60;2.03;;;14.70;99.90;;;;;;5044543;28;20219;-44
2021/08/03 00:52:34;;;;;;;5.63;2.57;;;14.70;99.90;;;;;;5041853;28;21018;-43
2021/08/03 00:55:03;;;;;;;4.37;1.97;;;14.80;99.90;;;;;;5044904;28;20620;-44
2021/08/03 00:57:30;;;;;;;3.10;2.27;;;14.70;99.90;;;;;;5041124;28;20306;-51
2021/08/03 00:59:57;;;;;;;3.93;1.80;;;14.70;99.90;;;;;;5045594;28;20286;-49
2021/08/03 01:02:29;;;;;;;4.10;2.47;;;14.70;99.90;;;;;;5026583;28;20247;-49
2021/08/03 01:04:59;;;;;;;2.77;1.87;;;14.70;99.90;;;;;;5045924;28;20199;-44
2021/08/03 01:07:36;;;;;;;3.97;2.10;;;14.70;99.90;;;;;;5042749;28;20273;-52
2021/08/03 01:10:17;;;;;;;2.67;2.07;;;14.70;99.90;;;;;;5044325;28;20253;-47
2021/08/03 01:12:53;;;;;;;2.03;1.90;;;14.70;99.90;;;;;;5043735;28;20865;-48
2021/08/03 01:15:24;;;;;;;2.23;2.07;;;14.70;99.90;;;;;;5044295;28;20199;-52
2021/08/03 01:17:59;;;;;;;1.77;1.67;;;14.80;99.90;;;;;;5029531;28;20223;-44
2021/08/03 01:20:30;;;;;;;3.10;2.33;;;14.80;99.90;;;;;;5042032;28;20195;-50
2021/08/03 01:23:28;;;;;;;1.90;1.80;;;14.80;99.90;;;;;;5043961;28;20222;-48
2021/08/03 01:26:03;;;;;;;1.80;1.70;;;14.80;99.90;;;;;;5044374;28;20192;-44
2021/08/03 01:28:36;;;;;;;2.67;1.57;;;14.70;99.90;;;;;;5039962;28;20738;-50
2021/08/03 01:31:07;;;;;;;2.03;1.43;;;14.80;99.90;;;;;;5042637;28;20223;-43
2021/08/03 01:33:37;;;;;;;2.57;2.00;;;14.70;99.90;;;;;;5026928;28;20208;-47
2021/08/03 01:36:07;;;;;;;5.00;2.03;;;14.70;99.90;;;;;;5045009;28;20198;-43
2021/08/03 01:38:38;;;;;;;3.97;1.73;;;14.70;99.90;;;;;;5041074;28;20183;-43
2021/08/03 01:41:08;;;;;;;2.40;2.10;;;14.80;99.90;;;;;;5044626;28;20697;-46
2021/08/03 01:43:39;;;;;;;2.10;1.83;;;14.70;99.90;;;;;;5046845;28;20272;-44
2021/08/03 01:46:07;;;;;;;3.20;1.87;;;14.70;99.90;;;;;;5064894;28;20203;-44
2021/08/03 01:48:37;;;;;;;6.10;1.73;;;14.70;99.90;;;;;;5042923;28;20942;-47
2021/08/03 01:51:07;;;;;;;2.70;1.80;;;14.70;99.90;;;;;;5044786;28;20219;-46
2021/08/03 01:53:35;;;;;;;4.83;1.80;;;14.70;99.90;;;;;;5039355;28;20195;-44
2021/08/03 01:56:04;;;;;;;4.40;2.20;;;14.70;99.90;;;;;;5043905;28;20191;-44
2021/08/03 01:58:32;;;;;;;3.20;1.83;;;14.70;99.90;;;;;;5039617;28;20203;-51
2021/08/03 02:01:11;;;;;;;2.33;1.87;;;14.70;99.90;;;;;;5044929;28;20642;-47
2021/08/03 02:03:39;;;;;;;3.23;1.50;;;14.70;99.90;;;;;;5024339;28;20207;-44
2021/08/03 02:06:15;;;;;;;3.17;2.27;;;14.70;99.90;;;;;;5043153;28;20205;-51
2021/08/03 02:08:44;;;;;;;4.93;2.10;;;14.70;99.90;;;;;;5041801;28;20213;-44
2021/08/03 02:11:14;;;;;;;1.97;1.80;;;14.70;99.90;;;;;;5044209;28;20229;-50
2021/08/03 02:13:45;;;;;;;2.57;1.80;;;14.70;99.90;;;;;;5041412;28;20909;-44
2021/08/03 02:16:19;;;;;;;5.53;1.77;;;14.70;99.90;;;;;;5043365;28;20244;-52
2021/08/03 02:18:51;;;;;;;3.90;1.60;;;14.80;99.90;;;;;;5041718;28;20198;-47
2021/08/03 02:21:24;;;;;;;3.90;2.10;;;14.70;99.90;;;;;;5026260;28;20211;-50
2021/08/03 02:23:52;;;;;;;3.57;2.20;;;14.80;99.90;;;;;;5042331;28;20180;-46
2021/08/03 02:26:20;;;;;;;3.03;1.87;;;14.70;99.90;;;;;;5040911;28;20270;-53
2021/08/03 02:28:48;;;;;;;4.90;1.77;;;14.80;99.90;;;;;;5040587;28;20379;-45
2021/08/03 02:31:23;;;;;;;3.20;2.10;;;14.70;99.90;;;;;;5042139;28;20296;-51
2021/08/03 02:33:56;;;;;;;2.43;1.70;;;14.80;99.90;;;;;;5042783;28;20181;-46
2021/08/03 02:36:28;;;;;;;2.30;2.10;;;14.80;99.90;;;;;;5026516;28;20227;-52
2021/08/03 02:39:02;;;;;;;3.10;2.17;;;14.70;99.90;;;;;;5042279;28;20226;-45
2021/08/03 02:41:31;;;;;;;2.33;2.00;;;14.70;99.90;;;;;;5040551;28;20199;-52
2021/08/03 02:44:00;;;;;;;3.33;2.00;;;14.70;99.90;;;;;;5042640;28;20199;-44
2021/08/03 02:46:30;;;;;;;4.40;2.60;;;14.70;99.90;;;;;;5040733;28;20218;-50
2021/08/03 02:49:02;;;;;;;4.30;2.40;;;14.70;99.90;;;;;;5043766;28;20198;-44
2021/08/03 02:51:31;;;;;;;3.17;1.90;;;14.60;99.90;;;;;;5027139;28;20222;-52
2021/08/03 02:54:03;;;;;;;2.70;2.07;;;14.60;99.90;;;;;;5042505;28;20192;-44
2021/08/03 02:56:32;;;;;;;2.73;2.53;;;14.60;99.90;;;;;;5040202;28;20234;-53
2021/08/03 02:59:04;;;;;;;4.20;1.77;;;14.60;99.90;;;;;;5042464;28;20282;-44
2021/08/03 03:01:36;;;;;;;2.97;2.03;;;14.50;99.90;;;;;;5038515;28;20245;-52
2021/08/03 03:04:10;;;;;;;3.37;2.03;;;14.60;99.90;;;;;;5043866;28;20195;-45
2021/08/03 03:06:38;;;;;;;2.57;2.00;;;14.50;99.90;;;;;;5038394;28;20783;-44
2021/08/03 03:09:05;;;;;;;1.97;1.87;;;14.50;99.90;;;;;;5028433;28;20247;-44
2021/08/03 03:11:34;;;;;;;3.83;2.23;;;14.50;99.90;;;;;;5039081;28;20790;-44
2021/08/03 03:14:08;;;;;;;2.93;2.17;;;14.50;99.90;;;;;;5035997;28;20231;-45
2021/08/03 03:16:42;;;;;;;4.30;2.00;;;14.50;99.90;;;;;;5037999;28;20304;-44
2021/08/03 03:19:10;;;;;;;2.77;2.20;;;14.50;99.90;;;;;;5041981;28;20199;-44
2021/08/03 03:21:40;;;;;;;6.07;2.33;;;14.40;99.90;;;;;;5038244;28;20191;-44
2021/08/03 03:24:08;;;;;;;3.23;2.00;;;14.40;99.90;;;;;;5028264;28;20214;-46
2021/08/03 03:26:36;;;;;;;4.33;2.47;;;14.40;99.90;;;;;;5037275;28;20250;-46
2021/08/03 03:29:09;;;;;;;4.97;2.50;;;14.40;99.90;;;;;;5042053;28;20195;-47
2021/08/03 03:31:40;;;;;;;3.93;2.23;;;14.40;99.90;;;;;;5039217;28;20235;-44
2021/08/03 03:34:09;;;;;;;5.73;2.40;;;14.40;99.90;;;;;;5042182;28;20230;-45
2021/08/03 03:36:37;;;;;;;2.07;1.87;;;14.50;99.90;;;;;;5034807;28;20219;-44
2021/08/03 03:39:11;;;;;;;2.00;1.80;;;14.50;99.90;;;;;;5027930;28;20195;-46
2021/08/03 03:41:44;;;;;;;4.60;2.10;;;14.50;99.90;;;;;;5039897;28;20182;-45
2021/08/03 03:44:12;;;;;;;3.53;2.30;;;14.50;99.90;;;;;;5040596;28;20203;-46
2021/08/03 03:46:45;;;;;;;2.33;2.10;;;14.50;99.90;;;;;;5037981;28;20211;-46
2021/08/03 03:49:14;;;;;;;5.33;2.33;;;14.50;99.90;;;;;;5042233;28;20301;-46
2021/08/03 03:51:44;;;;;;;3.57;2.23;;;14.50;99.90;;;;;;5040519;28;20237;-44
2021/08/03 03:54:19;;;;;;;3.97;2.20;;;14.50;99.90;;;;;;5040029;28;20206;-53
2021/08/03 03:56:50;;;;;;;4.27;2.33;;;14.40;99.90;;;;;;5032254;28;20227;-49
2021/08/03 03:59:21;;;;;;;4.43;2.67;;;14.40;99.90;;;;;;5041535;28;20668;-54
2021/08/03 04:01:53;;;;;;;3.43;2.60;;;14.40;99.90;;;;;;5034354;28;20286;-53
2021/08/03 04:04:20;;;;;;;2.87;2.53;;;14.40;99.90;;;;;;5040342;28;20241;-49
2021/08/03 04:06:47;;;;;;;4.33;2.40;;;14.40;99.90;;;;;;5030102;28;20227;-51
2021/08/03 04:09:19;;;;;;;4.10;3.10;;;14.40;99.90;;;;;;5044544;28;20210;-47
2021/08/03 04:11:47;;;;;;;4.67;3.03;;;14.40;99.90;;;;;;5027642;28;20219;-53
2021/08/03 04:14:19;;;;;;;5.13;3.10;;;14.40;99.90;;;;;;5046737;28;20223;-45
2021/08/03 04:16:46;;;;;;;7.27;3.63;;;14.30;99.90;;;;;;5040829;28;20219;-51
2021/08/03 04:19:15;;;;;;;3.50;3.20;;;14.30;99.90;;;;;;5045458;28;20192;-44
2021/08/03 04:21:42;;;;;;;6.07;3.77;;;14.30;99.90;;;;;;5040026;28;20206;-53
2021/08/03 04:24:09;;;;;;;4.13;3.33;;;14.30;99.90;;;;;;5044238;28;20202;-45
2021/08/03 04:26:36;;;;;;;4.40;3.70;;;14.30;99.90;;;;;;5022504;28;20219;-53
2021/08/03 04:29:05;;;;;;;5.13;3.43;;;14.30;99.90;;;;;;5036089;28;20274;-44
2021/08/03 04:31:32;;;;;;;4.73;3.47;;;14.30;99.90;;;;;;5040026;28;20215;-52
2021/08/03 04:33:58;;;;;;;5.97;4.27;;;14.30;99.90;;;;;;5034981;28;20210;-48
2021/08/03 04:36:26;;;;;;;2.67;2.23;;;14.30;99.90;;;;;;5046149;28;20220;-44
2021/08/03 04:38:53;;;;;;;3.47;1.70;;;14.30;99.90;;;;;;5035974;28;20199;-48
2021/08/03 04:41:20;;;;;;;1.87;1.50;;;14.20;99.90;;;;;;5032355;28;20704;-44
2021/08/03 04:43:47;;;;;;;2.20;1.70;;;14.20;99.90;;;;;;5042153;28;20204;-50
2021/08/03 04:46:14;;;;;;;2.80;2.00;;;14.20;99.90;;;;;;5039371;28;20209;-44
2021/08/03 04:48:41;;;;;;;2.57;2.03;;;14.20;99.90;;;;;;5038072;28;20199;-63
2021/08/03 04:51:08;;;;;;;2.07;1.87;;;14.20;99.90;;;;;;5029680;28;20215;-43
2021/08/03 04:53:36;;;;;;;1.87;1.77;;;14.30;99.90;;;;;;5029485;28;20210;-46
2021/08/03 04:56:03;;;;;;;2.87;2.10;;;14.20;99.90;;;;;;5048297;28;20211;-48
2021/08/03 04:58:30;;;;;;;2.27;1.97;;;14.20;99.90;;;;;;5026958;28;20207;-47
2021/08/03 05:00:57;;;;;;;2.40;2.20;;;14.20;99.90;;;;;;5045506;28;20187;-44
2021/08/03 05:03:23;;;;;;;3.47;2.13;;;14.20;99.90;;;;;;5041143;28;20567;-51
2021/08/03 05:05:50;;;;;;;2.43;2.13;;;14.30;99.90;;;;;;5043619;28;20204;-44
2021/08/03 05:08:16;;;;;;;3.30;2.10;;;14.30;99.90;;;;;;5042930;28;20219;-51
2021/08/03 05:10:44;;;;;;;2.87;2.30;;;14.30;99.90;;;;;;5036531;28;21029;-44
2021/08/03 05:13:11;;;;;;;2.30;1.70;;;14.30;99.90;;;;;;5031786;28;20204;-51
2021/08/03 05:15:38;;;;;;;1.80;1.60;;;14.30;99.90;;;;;;5042059;28;20186;-46
2021/08/03 05:18:05;;;;;;;1.90;1.20;;;14.30;99.90;;;;;;5045402;28;20219;-43
2021/08/03 05:20:31;;;;;;;2.73;1.20;;;14.30;99.90;;;;;;5046369;28;20206;-46
2021/08/03 05:22:58;;;;;;;2.00;1.27;;;14.20;99.90;;;;;;5052262;28;20199;-48
2021/08/03 05:25:25;;;;;;;2.27;1.13;;;14.30;99.90;;;;;;5040578;28;20562;-53
2021/08/03 05:27:53;;;;;;;2.03;1.27;;;14.30;99.90;;;;;;5044904;28;20212;-44
2021/08/03 05:30:20;;;;;;;8.30;3.40;;;14.30;99.90;;;;;;5026193;28;20286;-52
2021/08/03 05:32:46;;;;;;;2.57;1.30;;;14.40;99.90;;;;;;5031894;28;20204;-51
2021/08/03 05:35:13;;;;;;;2.17;1.37;;;14.40;99.90;;;;;;5039268;28;20211;-52
2021/08/03 05:37:40;;;;;;;1.67;1.10;;;14.40;99.90;;;;;;5035108;28;20222;-44
2021/08/03 05:40:11;;;;;;;1.50;1.33;;;14.50;99.90;;;;;;5038192;28;20211;-52
2021/08/03 05:42:39;;;;;;;2.20;1.30;;;14.60;99.90;;;;;;5032079;28;20199;-47
2021/08/03 05:45:08;;;;;;;3.80;1.37;;;14.60;99.90;;;;;;5030050;28;20211;-51
2021/08/03 05:47:35;;;;;;;1.90;1.43;;;14.70;99.90;;;;;;5040342;28;20230;-48
2021/08/03 05:50:02;;;;;;;2.10;1.90;;;14.70;99.90;;;;;;5042747;28;20195;-43
2021/08/03 05:52:29;;;;;;;2.20;1.50;;;14.70;99.90;;;;;;5033643;28;20219;-48
2021/08/03 05:54:56;;;;;;;1.70;1.60;;;14.70;99.90;;;;;;5036494;28;20229;-43
2021/08/03 05:57:22;;;;;;;2.90;1.63;;;14.70;99.90;;;;;;5028159;28;20231;-48
2021/08/03 05:59:49;;;;;;;1.60;1.50;;;14.70;99.90;;;;;;5043927;28;20195;-49
2021/08/03 06:02:17;;;;;;;1.97;1.80;;;14.70;99.90;;;;;;5027912;28;20688;-47
2021/08/03 06:04:43;;;;;;;1.80;1.70;;;14.80;99.90;;;;;;5043581;28;20196;-44
2021/08/03 06:07:11;;;;;;;2.57;1.90;;;14.80;99.90;;;;;;5038482;28;20599;-50
2021/08/03 06:09:39;;;;;;;2.30;1.50;;;14.90;99.90;;;;;;5035704;28;20187;-46
2021/08/03 06:12:08;;;;;;;3.93;2.13;;;14.80;99.90;;;;;;5038446;28;20793;-52
2021/08/03 06:14:37;;;;;;;2.43;1.63;;;14.90;99.90;;;;;;5034574;28;20927;-45
2021/08/03 06:17:07;;;;;;;2.10;1.50;;;14.90;99.90;;;;;;5026141;28;20219;-50
2021/08/03 06:19:42;;;;;;;5.67;2.00;;;14.90;99.90;;;;;;5037495;28;20232;-45
2021/08/03 06:22:10;;;;;;;1.60;1.50;;;15.00;99.90;;;;;;5027222;28;20207;-49
2021/08/03 06:24:38;;;;;;;4.77;2.00;;;15.00;99.90;;;;;;5040343;28;20199;-44
2021/08/03 06:27:07;;;;;;;4.87;1.80;;;15.00;99.90;;;;;;5039628;28;20235;-50
2021/08/03 06:29:36;;;;;;;2.23;2.03;;;15.00;99.90;;;;;;5045966;28;20199;-46
2021/08/03 06:32:03;;;;;;;1.93;1.53;;;15.10;99.90;;;;;;5039818;28;20219;-47
2021/08/03 06:34:31;;;;;;;2.60;1.83;;;15.10;99.90;;;;;;5016785;28;20942;-48
2021/08/03 06:36:59;;;;;;;2.20;2.00;;;15.10;99.90;;;;;;5027509;28;20242;-54
2021/08/03 06:39:25;;;;;;;4.13;2.17;;;15.20;99.90;;;;;;5039686;28;20215;-44
2021/08/03 06:41:58;;;;;;;1.70;1.60;;;15.20;99.90;;;;;;5032316;28;20200;-50
2021/08/03 06:44:33;;;;;;;1.60;1.50;;;15.20;99.90;;;;;;5031252;28;22669;-47
2021/08/03 06:47:00;;;;;;;2.70;1.90;;;15.30;99.90;;;;;;5039272;28;20218;-51
2021/08/03 06:49:32;;;;;;;2.30;2.10;;;15.40;99.90;;;;;;5026000;28;20200;-48
2021/08/03 06:52:01;;;;;;;2.30;2.20;;;15.40;99.90;;;;;;5039728;28;20215;-45
2021/08/03 06:54:30;;;;;;;6.03;2.20;;;15.40;99.90;;;;;;5038419;28;20209;-46
2021/08/03 06:57:06;;;;;;;2.60;2.17;;;15.40;99.90;;;;;;5038312;28;20223;-48
2021/08/03 06:59:39;;;;;;;2.73;2.13;;;15.50;99.90;;;;;;5031534;28;20288;-49
2021/08/03 07:02:07;;;;;;;2.17;2.00;;;15.60;99.90;;;;;;5035214;28;20207;-49
2021/08/03 07:04:37;;;;;;;3.33;1.80;;;15.70;99.90;;;;;;5027952;28;20211;-44
2021/08/03 07:07:05;;;;;;;2.00;1.80;;;15.70;99.90;;;;;;5032499;28;20263;-46
2021/08/03 07:09:32;;;;;;;2.67;2.00;;;15.80;99.90;;;;;;5042737;28;20206;-47
2021/08/03 07:11:59;;;;;;;2.67;1.03;;;15.80;99.90;;;;;;5037220;28;20600;-45
2021/08/03 07:14:29;;;;;;;3.20;1.40;;;15.80;99.90;;;;;;5039988;28;20699;-50
2021/08/03 07:16:57;;;;;;;1.50;1.40;;;15.90;99.90;;;;;;5031387;28;20308;-47
2021/08/03 07:19:25;;;;;;;3.63;1.63;;;16.00;99.90;;;;;;5020619;28;20927;-45
2021/08/03 07:21:52;;;;;;;2.63;1.70;;;16.10;99.90;;;;;;5036359;28;20199;-49
2021/08/03 07:24:20;;;;;;;4.80;1.50;;;16.10;99.90;;;;;;5024845;28;20830;-50
2021/08/03 07:26:47;;;;;;;2.30;1.10;;;16.10;99.90;;;;;;5038402;28;20222;-54
2021/08/03 07:29:14;;;;;;;2.43;1.50;;;16.20;99.90;;;;;;5040638;28;20214;-46
2021/08/03 07:31:42;;;;;;;2.70;1.10;;;16.30;99.90;;;;;;5034992;28;20223;-49
2021/08/03 07:34:09;;;;;;;1.33;1.20;;;16.30;99.90;;;;;;5024717;28;20240;-50
2021/08/03 07:36:36;;;;;;;1.30;0.83;;;16.40;99.90;;;;;;5043565;28;20230;-48
2021/08/03 07:39:04;;;;;;;1.47;0.80;;;16.50;99.90;;;;;;5031479;28;20704;-48
2021/08/03 07:41:33;;;;;;;2.27;1.00;;;16.50;99.90;;;;;;5044395;28;20195;-48
2021/08/03 07:44:00;;;;;;;5.63;2.30;;;16.50;99.90;;;;;;5031187;28;20199;-48
2021/08/03 07:46:26;;;;;;;6.87;1.63;;;16.60;99.90;;;;;;5040657;28;20970;-46
2021/08/03 07:48:53;;;;;;;5.27;1.13;;;16.60;99.90;;;;;;5043975;28;20653;-46
2021/08/03 07:51:21;;;;;;;2.60;1.20;;;16.70;99.90;;;;;;5018099;28;20218;-45
2021/08/03 07:53:48;;;;;;;2.60;0.90;;;16.70;99.90;;;;;;5040898;28;20181;-47
2021/08/03 07:56:15;;;;;;;3.57;1.13;;;16.70;99.90;;;;;;5031014;28;20199;-48
2021/08/03 07:58:43;;;;;;;1.30;0.90;;;16.80;99.90;;;;;;5024407;28;20852;-45
2021/08/03 08:01:10;;;;;;;1.33;0.90;;;16.90;99.90;;;;;;5036724;28;20207;-50
2021/08/03 08:03:38;;;;;;;2.40;1.10;;;16.90;99.90;;;;;;5037443;28;20199;-48
2021/08/03 08:06:06;;;;;;;1.23;0.97;;;17.10;99.90;;;;;;5027130;28;20212;-47
2021/08/03 08:08:33;;;;;;;1.93;1.00;;;17.20;99.90;;;;;;5040355;28;20482;-50
2021/08/03 08:11:00;;;;;;;3.50;1.00;;;17.40;99.90;;;;;;5046176;28;20214;-50
2021/08/03 08:13:27;;;;;;;1.83;1.00;;;17.50;99.90;;;;;;5041259;28;20210;-43
2021/08/03 08:15:55;;;;;;;1.10;0.77;;;17.60;99.90;;;;;;5052713;28;20203;-45
2021/08/03 08:18:22;;;;;;;2.40;0.70;;;17.50;99.90;;;;;;5040410;28;20230;-47
2021/08/03 08:20:48;;;;;;;1.93;0.73;;;17.50;99.90;;;;;;5028471;28;20219;-44
2021/08/03 08:23:16;;;;;;;0.83;0.83;;;17.40;99.90;;;;;;5042073;28;20191;-50
2021/08/03 08:25:43;;;;;;;2.03;0.93;;;17.40;99.90;;;;;;5042156;28;20908;-47
2021/08/03 08:28:10;;;;;;;1.43;1.33;;;17.30;99.90;;;;;;5042566;28;20227;-46
2021/08/03 08:30:37;;;;;;;1.93;1.03;;;17.20;99.90;;;;;;5034270;28;20915;-45
2021/08/03 08:33:05;;;;;;;1.80;0.80;;;17.20;99.90;;;;;;5039708;28;20235;-45
2021/08/03 08:35:33;;;;;;;0.90;0.90;;;17.10;99.90;;;;;;5036949;28;20200;-46
2021/08/03 08:38:00;;;;;;;0.87;0.87;;;16.90;99.90;;;;;;5029890;28;20222;-49
2021/08/03 08:40:27;;;;;;;1.83;1.07;;;16.70;99.90;;;;;;5034163;28;20211;-49
2021/08/03 08:42:53;;;;;;;1.80;0.70;;;16.50;99.90;;;;;;5038308;28;20209;-44
2021/08/03 08:45:20;;;;;;;1.53;0.83;;;16.30;99.90;;;;;;5025662;28;20271;-47
2021/08/03 08:47:48;;;;;;;3.80;0.83;;;16.20;99.90;;;;;;5038129;28;20322;-50
2021/08/03 08:50:20;;;;;;;1.50;0.53;;;16.10;99.90;;;;;;5042445;28;20699;-46
2021/08/03 08:52:49;;;;;;;0.87;0.67;;;16.00;99.90;;;;;;5013592;28;20226;-44
2021/08/03 08:55:16;;;;;;;0.60;0.60;;;15.90;99.90;;;;;;5030164;28;20890;-46
2021/08/03 08:57:45;;;;;;;0.73;0.73;;;15.90;99.90;;;;;;5035952;28;20208;-45
2021/08/03 09:00:12;;;;;;;1.87;1.00;;;15.90;99.90;;;;;;5036797;28;20207;-46
2021/08/03 09:02:39;;;;;;;0.87;0.80;;;15.90;99.90;;;;;;5033413;28;20198;-47
2021/08/03 09:05:07;;;;;;;1.70;0.90;;;16.00;99.90;;;;;;5039346;28;20216;-45
2021/08/03 09:07:47;;;;;;;2.43;1.00;;;16.00;99.90;;;;;;5024208;28;20227;-43
2021/08/03 09:10:30;;;;;;;2.10;1.20;;;16.00;99.90;;;;;;5043790;28;21240;-45
2021/08/03 09:13:03;;;;;;;2.43;1.10;;;16.00;99.90;;;;;;5039932;28;20587;-43
2021/08/03 09:15:30;;;;;;;1.27;0.90;;;16.00;99.90;;;;;;5029079;28;20207;-42
2021/08/03 09:18:26;;;;;;;1.10;1.00;;;16.00;99.90;;;;;;5037250;28;20223;-44
2021/08/03 09:20:53;;;;;;;1.13;0.97;;;16.10;99.90;;;;;;5023955;28;20573;-43
2021/08/03 09:23:38;;;;;;;1.40;1.17;;;16.10;99.90;;;;;;5026957;28;20205;-44
2021/08/03 09:26:05;;;;;;;1.53;1.00;;;16.30;99.90;;;;;;5037966;28;20206;-46
2021/08/03 09:28:32;;;;;;;0.97;0.90;;;16.40;99.90;;;;;;5031804;28;20194;-43
2021/08/03 09:30:59;;;;;;;1.37;0.90;;;16.60;99.90;;;;;;5044645;28;20593;-43
2021/08/03 09:33:27;;;;;;;1.27;0.70;;;16.70;99.90;;;;;;5037268;28;20596;-45
2021/08/03 09:35:55;;;;;;;0.70;0.70;;;16.70;99.90;;;;;;5023686;28;20199;-46
2021/08/03 09:38:23;;;;;;;1.57;0.80;;;16.90;99.90;;;;;;5023592;28;20226;-45
2021/08/03 09:40:52;;;;;;;1.90;0.80;;;17.10;99.90;;;;;;5039517;28;20195;-45
2021/08/03 09:43:28;;;;;;;3.30;0.87;;;17.20;99.90;;;;;;5035057;28;20278;-43
2021/08/03 09:46:00;;;;;;;0.93;0.80;;;17.30;99.90;;;;;;5038270;28;20294;-42
2021/08/03 09:48:28;;;;;;;1.07;0.80;;;17.40;99.90;;;;;;5037489;28;20215;-41
2021/08/03 09:51:06;;;;;;;1.60;0.80;;;17.50;99.90;;;;;;5040005;28;20231;-45
2021/08/03 09:53:38;;;;;;;2.47;0.80;;;17.60;99.90;;;;;;5038641;28;20214;-44
2021/08/03 09:56:06;;;;;;;1.80;0.90;;;17.70;99.90;;;;;;5029672;28;20210;-42
2021/08/03 09:58:32;;;;;;;1.37;1.07;;;17.80;99.90;;;;;;5039127;28;20199;-45
2021/08/03 10:01:22;;;;;;;1.67;1.00;;;17.90;99.90;;;;;;5031509;28;20278;-42
2021/08/03 10:03:49;;;;;;;0.70;0.70;;;17.90;99.90;;;;;;5037471;28;20664;-42
2021/08/03 10:06:18;;;;;;;1.57;0.90;;;18.00;99.90;;;;;;5043858;28;20199;-42
2021/08/03 10:08:47;;;;;;;4.23;0.70;;;18.20;99.90;;;;;;5040064;28;20199;-44
2021/08/03 10:11:14;;;;;;;2.27;0.97;;;18.20;99.90;;;;;;5027289;28;20307;-45
2021/08/03 10:13:41;;;;;;;1.20;0.87;;;18.20;99.90;;;;;;5040391;28;20211;-42
2021/08/03 10:16:08;;;;;;;0.80;0.80;;;18.30;99.90;;;;;;5036369;28;20204;-46
2021/08/03 10:18:38;;;;;;;1.10;0.70;;;18.30;99.90;;;;;;5046679;28;20187;-43
2021/08/03 10:21:06;;;;;;;2.13;0.90;;;18.40;99.90;;;;;;5038306;28;20923;-43
2021/08/03 10:23:35;;;;;;;0.80;0.80;;;18.50;99.90;;;;;;5046198;28;20183;-44
2021/08/03 10:26:09;;;;;;;1.00;0.60;;;18.60;99.90;;;;;;5024071;28;20214;-43
2021/08/03 10:28:36;;;;;;;0.97;0.90;;;18.70;99.90;;;;;;5043474;28;20195;-44
2021/08/03 10:31:03;;;;;;;0.63;0.57;;;18.80;99.90;;;;;;5010970;28;20278;-43
2021/08/03 10:33:40;;;;;;;2.77;0.90;;;18.70;99.90;;;;;;5040955;28;20211;-44
2021/08/03 10:36:08;;;;;;;0.80;0.73;;;18.80;99.90;;;;;;5033173;28;20269;-42
2021/08/03 10:38:35;;;;;;;0.90;0.57;;;18.80;99.90;;;;;;5040798;28;20200;-43
2021/08/03 10:41:08;;;;;;;1.70;0.80;;;18.80;99.90;;;;;;5037637;28;20893;-41
2021/08/03 10:43:48;;;;;;;1.03;0.53;;;18.90;99.90;;;;;;5026234;28;20210;-43
2021/08/03 10:46:38;;;;;;;0.93;0.60;;;19.00;99.90;;;;;;5027062;28;20203;-42
2021/08/03 10:49:06;;;;;;;1.80;0.60;;;19.10;99.90;;;;;;5036750;28;20280;-42
2021/08/03 10:51:40;;;;;;;0.60;0.60;;;19.10;99.90;;;;;;5031973;28;20196;-43
2021/08/03 10:54:09;;;;;;;3.20;0.70;;;19.30;99.90;;;;;;5040873;28;20277;-42
2021/08/03 10:57:17;;;;;;;0.83;0.60;;;19.40;99.90;;;;;;5040113;28;20222;-42
2021/08/03 10:59:46;;;;;;;0.60;0.60;;;19.40;99.90;;;;;;5026681;28;20713;-45
2021/08/03 11:02:42;;;;;;;0.50;0.50;;;19.40;99.90;;;;;;5016417;28;20303;-43
2021/08/03 11:05:25;;;;;;;3.17;0.77;;;19.50;99.90;;;;;;5034995;28;20207;-46
2021/08/03 11:07:52;;;;;;;0.80;0.80;;;19.40;99.90;;;;;;5024565;28;20224;-43
2021/08/03 11:10:33;;;;;;;0.97;0.60;;;19.60;99.90;;;;;;5030830;28;20204;-42
2021/08/03 11:13:03;;;;;;;0.50;0.50;;;19.70;99.90;;;;;;5023690;28;20211;-44
2021/08/03 11:15:39;;;;;;;0.90;0.90;;;19.80;99.90;;;;;;5028366;28;20184;-46
2021/08/03 11:18:10;;;;;;;0.80;0.80;;;19.80;99.90;;;;;;5036465;28;20273;-44
2021/08/03 11:21:13;;;;;;;0.63;0.60;;;19.60;99.90;;;;;;5037254;28;20331;-44
2021/08/03 11:24:03;;;;;;;0.60;0.60;;;19.50;99.90;;;;;;5026300;28;20195;-45
2021/08/03 11:26:32;;;;;;;0.80;0.80;;;19.40;99.90;;;;;;5034733;28;20232;-45
2021/08/03 11:29:03;;;;;;;0.97;0.70;;;19.40;99.90;;;;;;5025694;28;20204;-45
2021/08/03 11:31:51;;;;;;;1.20;0.50;;;19.40;99.90;;;;;;5036056;28;20198;-43
2021/08/03 11:34:21;;;;;;;0.80;0.70;;;19.30;99.90;;;;;;5028079;28;20221;-46
2021/08/03 11:37:01;;;;;;;1.30;0.80;;;19.20;99.90;;;;;;5038166;28;20561;-50
2021/08/03 11:39:30;;;;;;;0.60;0.50;;;19.20;99.90;;;;;;5029267;28;20207;-42
2021/08/03 11:41:57;;;;;;;2.93;0.77;;;19.10;99.90;;;;;;5032750;28;20197;-49
2021/08/03 11:44:24;;;;;;;2.43;0.63;;;19.10;99.90;;;;;;5020939;28;20210;-43
2021/08/03 11:46:58;;;;;;;0.80;0.60;;;19.10;99.90;;;;;;5031743;28;20219;-45
2021/08/03 11:49:37;;;;;;;0.90;0.53;;;19.20;99.90;;;;;;5031330;28;20211;-44
2021/08/03 11:52:11;;;;;;;0.87;0.70;;;19.20;99.90;;;;;;5028044;28;20936;-45
2021/08/03 11:54:38;;;;;;;2.97;0.80;;;19.20;99.90;;;;;;5021379;28;20214;-45
2021/08/03 11:57:23;;;;;;;1.07;0.60;;;19.30;99.90;;;;;;5024924;28;20215;-45
2021/08/03 11:59:57;;;;;;;1.00;0.80;;;19.50;99.90;;;;;;5022950;28;20196;-47
2021/08/03 12:02:26;;;;;;;0.97;0.70;;;19.40;99.90;;;;;;5029577;28;20209;-45
2021/08/03 12:05:04;;;;;;;1.23;0.80;;;19.50;99.90;;;;;;5034453;28;20204;-47
2021/08/03 12:07:31;;;;;;;1.73;0.67;;;19.60;99.90;;;;;;5033282;28;20227;-44
2021/08/03 12:09:58;;;;;;;2.23;0.67;;;19.70;99.90;;;;;;5034617;28;20219;-49
2021/08/03 12:12:24;;;;;;;1.03;0.70;;;19.80;99.90;;;;;;5037702;28;20203;-44
2021/08/03 12:15:02;;;;;;;1.13;0.60;;;19.80;99.90;;;;;;5025102;28;20203;-48
2021/08/03 12:17:30;;;;;;;0.60;0.60;;;19.90;99.90;;;;;;5041888;28;20218;-48
2021/08/03 12:20:03;;;;;;;1.23;0.60;;;20.10;99.90;;;;;;5030470;28;20665;-47
2021/08/03 12:22:31;;;;;;;1.27;0.80;;;20.20;99.90;;;;;;5036408;28;20227;-46
2021/08/03 12:24:59;;;;;;;0.43;0.40;;;20.20;99.90;;;;;;5028042;28;20199;-51
2021/08/03 12:27:26;;;;;;;2.63;1.00;;;20.30;99.90;;;;;;5038433;28;20207;-44
2021/08/03 12:29:53;;;;;;;1.37;0.60;;;20.30;99.90;;;;;;5041096;28;20208;-46
2021/08/03 12:32:39;;;;;;;1.40;0.68;;;20.20;99.90;;;;;;5021111;28;20200;-46
2021/08/03 12:35:10;;;;;;;1.33;0.83;;;20.10;99.90;;;;;;5028959;28;20264;-45
2021/08/03 12:37:36;;;;;;;0.90;0.90;;;20.00;99.90;;;;;;5044378;28;20227;-48
2021/08/03 12:40:04;;;;;;;1.33;0.60;;;19.90;99.90;;;;;;5033880;28;20202;-46
2021/08/03 12:42:34;;;;;;;1.20;0.60;;;19.70;99.90;;;;;;5038952;28;20686;-46
2021/08/03 12:45:12;;;;;;;0.93;0.50;;;19.70;99.90;;;;;;5035729;28;20546;-57
2021/08/03 12:47:51;;;;;;;1.70;0.60;;;19.60;99.90;;;;;;5017167;28;20219;-59
2021/08/03 12:50:18;;;;;;;0.53;0.40;;;19.70;99.90;;;;;;5030491;28;23583;-58
2021/08/03 12:52:48;;;;;;;3.33;1.00;;;19.70;99.90;;;;;;5040359;28;20290;-58
2021/08/03 12:55:25;;;;;;;0.70;0.60;;;19.70;99.90;;;;;;5036754;28;20322;-56
2021/08/03 12:57:54;;;;;;;1.37;0.60;;;19.70;99.90;;;;;;5036523;28;20226;-45
2021/08/03 13:00:28;;;;;;;0.90;0.80;;;19.80;99.90;;;;;;5035451;28;20211;-44
2021/08/03 13:02:57;;;;;;;0.75;0.57;;;19.90;99.90;;;;;;5019918;28;20203;-45